createdAt,value
2023-04-14T00:01:26.068Z,75.69
2023-04-14T00:03:53.002Z,76.84
2023-04-14T00:06:19.594Z,76.96
2023-04-14T00:08:46.058Z,76.43
2023-04-14T00:11:12.592Z,75.36
2023-04-14T00:13:39.016Z,73.92
2023-04-14T00:16:07.091Z,74.66
2023-04-14T00:18:33.618Z,75.72
2023-04-14T00:21:00.119Z,75.17
2023-04-14T00:23:26.596Z,75.44
2023-04-14T00:25:53.057Z,75.48
2023-04-14T00:28:19.529Z,75.57
2023-04-14T00:30:45.992Z,74.62
2023-04-14T00:33:12.495Z,74.34
2023-04-14T00:35:38.977Z,74.06
2023-04-14T00:38:05.422Z,74.89
2023-04-14T00:40:31.999Z,75.18
2023-04-14T00:42:58.502Z,75.68
2023-04-14T00:45:27.334Z,75.93
2023-04-14T00:47:54.905Z,75.40
2023-04-14T00:50:21.643Z,75.66
2023-04-14T00:52:49.451Z,74.55
2023-04-14T00:55:17.499Z,74.70
2023-04-14T00:57:44.234Z,74.29
2023-04-14T01:00:12.124Z,76.09
2023-04-14T01:02:38.940Z,75.49
2023-04-14T01:05:06.017Z,76.17
2023-04-14T01:07:32.628Z,74.80
2023-04-14T01:10:00.941Z,75.88
2023-04-14T01:12:46.392Z,75.43
2023-04-14T01:15:18.521Z,75.25
2023-04-14T01:17:47.308Z,75.80
2023-04-14T01:20:22.964Z,75.87
2023-04-14T01:22:59.862Z,75.58
2023-04-14T01:25:54.281Z,75.53
2023-04-14T01:28:45.854Z,75.39
2023-04-14T01:31:12.388Z,75.64
2023-04-14T01:33:41.403Z,75.49
2023-04-14T01:36:12.235Z,76.36
2023-04-14T01:38:40.486Z,74.91
2023-04-14T01:41:09.293Z,76.15
2023-04-14T01:43:40.083Z,75.97
2023-04-14T01:46:08.540Z,75.84
2023-04-14T01:48:35.441Z,75.74
2023-04-14T01:51:02.577Z,75.42
2023-04-14T01:53:31.317Z,75.48
2023-04-14T01:55:58.887Z,75.18
2023-04-14T01:58:26.168Z,74.67
2023-04-14T02:00:53.088Z,75.44
2023-04-14T02:03:21.278Z,76.90
2023-04-14T02:05:49.141Z,76.98
2023-04-14T02:08:16.237Z,76.06
2023-04-14T02:10:44.937Z,75.89
2023-04-14T02:13:12.798Z,75.67
2023-04-14T02:15:39.885Z,75.99
2023-04-14T02:18:07.204Z,77.38
2023-04-14T02:20:34.200Z,76.79
2023-04-14T02:23:00.912Z,77.28
2023-04-14T02:25:31.388Z,78.31
2023-04-14T02:28:02.887Z,78.24
2023-04-14T02:30:32.177Z,77.29
2023-04-14T02:33:04.691Z,77.61
2023-04-14T02:35:38.076Z,76.36
2023-04-14T02:38:07.785Z,76.59
2023-04-14T02:40:39.332Z,76.82
2023-04-14T02:43:18.030Z,75.59
2023-04-14T02:45:48.992Z,76.30
2023-04-14T02:48:16.502Z,75.20
2023-04-14T02:50:45.728Z,74.58
2023-04-14T02:53:12.901Z,75.54
2023-04-14T02:55:39.794Z,74.64
2023-04-14T02:58:06.694Z,75.33
2023-04-14T03:00:33.424Z,75.90
2023-04-14T03:03:00.958Z,75.49
2023-04-14T03:05:28.082Z,75.54
2023-04-14T03:07:55.076Z,76.26
2023-04-14T03:10:23.099Z,75.69
2023-04-14T03:12:50.698Z,75.57
2023-04-14T03:15:18.307Z,74.30
2023-04-14T03:17:48.165Z,73.65
2023-04-14T03:20:20.162Z,75.88
2023-04-14T03:22:48.334Z,76.79
2023-04-14T03:25:15.900Z,76.27
2023-04-14T03:27:43.767Z,75.96
2023-04-14T03:30:11.226Z,76.12
2023-04-14T03:32:41.808Z,76.08
2023-04-14T03:35:09.669Z,77.43
2023-04-14T03:37:39.537Z,77.00
2023-04-14T03:40:08.378Z,76.48
2023-04-14T03:42:36.402Z,75.67
2023-04-14T03:45:03.874Z,75.39
2023-04-14T03:47:31.920Z,74.88
2023-04-14T03:50:01.245Z,75.16
2023-04-14T03:52:35.355Z,74.27
2023-04-14T03:55:06.321Z,75.59
2023-04-14T03:57:33.648Z,76.01
2023-04-14T04:00:02.440Z,75.62
2023-04-14T04:02:29.883Z,76.07
2023-04-14T04:04:57.274Z,75.04
2023-04-14T04:07:25.687Z,74.71
2023-04-14T04:09:52.375Z,74.81
2023-04-14T04:12:20.425Z,75.02
2023-04-14T04:14:47.078Z,74.66
2023-04-14T04:17:15.915Z,74.73
2023-04-14T04:19:43.909Z,75.91
2023-04-14T04:22:11.914Z,75.64
2023-04-14T04:24:40.280Z,74.99
2023-04-14T04:27:12.050Z,75.00
2023-04-14T04:29:43.767Z,75.81
2023-04-14T04:32:10.648Z,76.32
2023-04-14T04:34:37.403Z,76.38
2023-04-14T04:37:04.060Z,76.69
2023-04-14T04:39:31.008Z,76.02
2023-04-14T04:42:07.314Z,75.96
2023-04-14T04:44:34.496Z,76.64
2023-04-14T04:47:01.732Z,75.83
2023-04-14T04:49:28.721Z,75.09
2023-04-14T04:51:56.861Z,75.28
2023-04-14T04:54:23.419Z,75.24
2023-04-14T04:56:50.217Z,75.41
2023-04-14T04:59:16.699Z,75.33
2023-04-14T05:01:43.332Z,75.76
2023-04-14T05:04:09.961Z,75.02
2023-04-14T05:06:39.915Z,74.25
2023-04-14T05:09:06.701Z,75.63
2023-04-14T05:11:33.861Z,75.91
2023-04-14T05:14:00.564Z,75.83
2023-04-14T05:16:28.300Z,75.58
2023-04-14T05:18:54.782Z,75.63
2023-04-14T05:21:21.686Z,75.29
2023-04-14T05:23:48.300Z,75.25
2023-04-14T05:26:39.046Z,74.83
2023-04-14T05:29:01.830Z,74.81
2023-04-14T05:31:28.681Z,74.89
2023-04-14T05:33:55.173Z,74.66
2023-04-14T05:36:21.596Z,74.39
2023-04-14T05:38:48.053Z,74.49
2023-04-14T05:41:14.534Z,74.16
2023-04-14T05:43:41.170Z,74.23
2023-04-14T05:46:07.781Z,73.43
2023-04-14T05:48:36.329Z,74.40
2023-04-14T05:51:02.796Z,74.02
2023-04-14T05:53:29.261Z,73.91
2023-04-14T05:55:57.263Z,73.48
2023-04-14T05:58:24.940Z,74.14
2023-04-14T06:00:51.413Z,74.36
2023-04-14T06:03:18.020Z,74.52
2023-04-14T06:05:44.659Z,74.11
2023-04-14T06:08:11.170Z,74.52
2023-04-14T06:10:37.722Z,75.75
2023-04-14T06:13:04.218Z,75.57
2023-04-14T06:15:31.170Z,74.92
2023-04-14T06:17:57.719Z,74.78
2023-04-14T06:20:24.300Z,74.61
2023-04-14T06:22:50.832Z,74.86
2023-04-14T06:25:17.368Z,74.55
2023-04-14T06:27:43.964Z,75.46
2023-04-14T06:30:10.739Z,75.54
2023-04-14T06:32:37.322Z,76.84
2023-04-14T06:35:05.013Z,77.34
2023-04-14T06:37:32.186Z,76.83
2023-04-14T06:39:58.678Z,76.44
2023-04-14T06:42:25.747Z,77.23
2023-04-14T06:44:52.335Z,77.62
2023-04-14T06:47:20.016Z,77.59
2023-04-14T06:49:46.606Z,78.64
2023-04-14T06:52:13.080Z,78.30
2023-04-14T06:54:39.557Z,78.23
2023-04-14T06:57:06.040Z,76.87
2023-04-14T06:59:32.540Z,78.33
2023-04-14T07:01:59.185Z,78.69
2023-04-14T07:04:26.193Z,78.72
2023-04-14T07:06:52.770Z,79.58
2023-04-14T07:09:19.616Z,80.13
2023-04-14T07:11:46.545Z,80.23
2023-04-14T07:14:13.010Z,80.55
2023-04-14T07:16:39.626Z,79.88
2023-04-14T07:19:06.183Z,78.90
2023-04-14T07:21:32.732Z,78.57
2023-04-14T07:23:59.390Z,77.04
2023-04-14T07:26:26.336Z,77.26
2023-04-14T07:28:52.841Z,76.50
2023-04-14T07:31:19.388Z,78.82
2023-04-14T07:33:45.928Z,75.95
2023-04-14T07:36:12.778Z,76.14
2023-04-14T07:38:39.291Z,76.37
2023-04-14T07:41:07.172Z,74.63
2023-04-14T07:43:36.895Z,75.12
2023-04-14T07:46:05.595Z,75.79
2023-04-14T07:48:33.738Z,75.55
2023-04-14T07:51:00.255Z,74.21
2023-04-14T07:53:26.735Z,72.22
2023-04-14T07:55:53.211Z,73.41
2023-04-14T07:58:19.849Z,72.59
2023-04-14T08:00:46.310Z,71.37
2023-04-14T08:03:13.882Z,69.27
2023-04-14T08:05:42.178Z,68.36
2023-04-14T08:08:10.180Z,67.32
2023-04-14T08:10:41.527Z,66.91
2023-04-14T08:13:08.011Z,65.78
2023-04-14T08:15:34.517Z,64.26
2023-04-14T08:18:01.048Z,64.04
2023-04-14T08:20:27.547Z,64.37
2023-04-14T08:22:55.549Z,63.36
2023-04-14T08:25:22.026Z,63.80
2023-04-14T08:27:48.517Z,63.47
2023-04-14T08:30:15.285Z,61.62
2023-04-14T08:32:41.852Z,61.83
2023-04-14T08:35:35.305Z,61.25
2023-04-14T08:37:55.745Z,60.96
2023-04-14T08:40:22.781Z,60.34
2023-04-14T08:42:49.253Z,59.94
2023-04-14T08:45:15.913Z,59.20
2023-04-14T08:47:42.929Z,57.13
2023-04-14T08:50:13.339Z,56.60
2023-04-14T08:52:41.649Z,57.70
2023-04-14T08:55:08.919Z,57.94
2023-04-14T08:57:35.578Z,57.65
2023-04-14T09:00:04.977Z,58.50
2023-04-14T09:02:35.204Z,57.64
2023-04-14T09:05:02.053Z,58.00
2023-04-14T09:07:30.131Z,57.10
2023-04-14T09:09:57.655Z,57.54
2023-04-14T09:12:26.479Z,56.79
2023-04-14T09:14:54.026Z,57.17
2023-04-14T09:17:22.154Z,56.60
2023-04-14T09:20:35.654Z,57.01
2023-04-14T09:22:35.752Z,57.47
2023-04-14T09:25:02.602Z,57.12
2023-04-14T09:27:29.381Z,57.33
2023-04-14T09:29:58.943Z,56.64
2023-04-14T09:32:25.996Z,55.78
2023-04-14T09:34:56.774Z,56.12
2023-04-14T09:37:25.317Z,58.17
2023-04-14T09:39:52.562Z,57.23
2023-04-14T09:42:19.286Z,57.65
2023-04-14T09:44:59.124Z,59.00
2023-04-14T09:47:26.511Z,58.24
2023-04-14T09:50:00.664Z,58.24
2023-04-14T09:52:37.780Z,58.61
2023-04-14T09:55:08.145Z,57.34
2023-04-14T09:57:35.744Z,56.53
2023-04-14T10:00:02.281Z,55.95
2023-04-14T10:02:48.137Z,55.00
2023-04-14T10:05:15.322Z,54.05
2023-04-14T10:07:42.286Z,54.30
2023-04-14T10:10:15.200Z,54.10
2023-04-14T10:12:43.442Z,54.57
2023-04-14T10:15:13.099Z,55.20
2023-04-14T10:17:39.708Z,54.51
2023-04-14T10:20:07.076Z,53.76
2023-04-14T10:22:33.804Z,54.31
2023-04-14T10:25:00.585Z,54.35
2023-04-14T10:27:31.840Z,54.13
2023-04-14T10:29:58.853Z,54.97
2023-04-14T10:32:26.807Z,55.79
2023-04-14T10:35:11.670Z,54.98
2023-04-14T10:37:38.270Z,53.04
2023-04-14T10:40:07.343Z,54.42
2023-04-14T10:42:54.389Z,55.23
2023-04-14T10:45:21.634Z,57.55
2023-04-14T10:47:49.928Z,55.97
2023-04-14T10:50:18.514Z,58.23
2023-04-14T10:52:56.300Z,58.41
2023-04-14T10:55:27.908Z,56.43
2023-04-14T10:58:05.176Z,56.40
2023-04-14T11:00:32.428Z,57.40
2023-04-14T11:03:13.405Z,57.70
2023-04-14T11:05:58.438Z,56.39
2023-04-14T11:08:27.114Z,55.28
2023-04-14T11:11:04.875Z,55.06
2023-04-14T11:13:32.700Z,56.22
2023-04-14T11:16:04.602Z,56.85
2023-04-14T11:18:33.289Z,55.07
2023-04-14T11:21:07.004Z,55.42
2023-04-14T11:23:37.250Z,56.46
2023-04-14T11:26:08.509Z,56.05
2023-04-14T11:28:45.049Z,55.47
2023-04-14T11:31:15.832Z,54.81
2023-04-14T11:33:42.639Z,56.01
2023-04-14T11:36:11.248Z,56.31
2023-04-14T11:38:41.028Z,55.89
2023-04-14T11:41:08.724Z,55.08
2023-04-14T11:43:37.495Z,54.38
2023-04-14T11:46:06.326Z,55.58
2023-04-14T11:48:32.942Z,54.05
2023-04-14T11:51:03.753Z,52.63
2023-04-14T11:53:30.574Z,51.60
2023-04-14T11:55:57.720Z,52.89
2023-04-14T11:58:25.688Z,53.13
2023-04-14T12:03:41.210Z,52.86
2023-04-14T12:06:08.068Z,51.56
2023-04-14T12:08:35.682Z,52.05
2023-04-14T12:11:15.432Z,52.09
2023-04-14T12:13:46.444Z,52.03
2023-04-14T12:16:13.658Z,50.58
2023-04-14T12:18:40.670Z,50.40
2023-04-14T12:21:09.866Z,51.66
2023-04-14T12:23:39.959Z,51.50
2023-04-14T12:26:12.048Z,52.43
2023-04-14T12:28:42.042Z,52.72
2023-04-14T12:31:09.817Z,53.70
2023-04-14T12:33:36.429Z,52.93
2023-04-14T12:36:13.010Z,53.68
2023-04-14T12:38:39.713Z,54.50
2023-04-14T12:41:06.197Z,55.42
2023-04-14T12:43:34.765Z,53.63
2023-04-14T12:46:03.829Z,53.07
2023-04-14T12:48:45.764Z,52.94
2023-04-14T12:51:14.349Z,52.42
2023-04-14T12:53:42.547Z,52.35
2023-04-14T12:56:11.663Z,52.36
2023-04-14T12:58:39.960Z,51.61
2023-04-14T13:01:07.836Z,51.57
2023-04-14T13:03:47.702Z,50.63
2023-04-14T13:06:16.534Z,50.12
2023-04-14T13:08:44.870Z,52.57
2023-04-14T13:11:12.813Z,52.67
2023-04-14T13:13:39.351Z,53.29
2023-04-14T13:16:13.658Z,52.14
2023-04-14T13:18:46.860Z,52.52
2023-04-14T13:21:13.676Z,53.58
2023-04-14T13:23:40.678Z,53.34
2023-04-14T13:26:07.486Z,53.67
2023-04-14T13:28:33.999Z,51.92
2023-04-14T13:31:01.125Z,51.36
2023-04-14T13:33:27.704Z,51.77
2023-04-14T13:35:55.692Z,52.28
2023-04-14T13:38:22.481Z,51.93
2023-04-14T13:40:49.007Z,54.20
2023-04-14T13:43:17.988Z,55.08
2023-04-14T13:45:44.940Z,55.15
2023-04-14T13:48:11.559Z,55.82
2023-04-14T13:50:38.125Z,54.48
2023-04-14T13:53:04.619Z,53.51
2023-04-14T13:55:31.345Z,54.06
2023-04-14T13:57:57.831Z,54.71
2023-04-14T14:00:24.419Z,54.98
2023-04-14T14:02:52.174Z,53.35
2023-04-14T14:05:18.745Z,54.17
2023-04-14T14:07:45.588Z,55.48
2023-04-14T14:10:12.214Z,57.16
2023-04-14T14:12:38.692Z,56.75
2023-04-14T14:15:05.875Z,58.86
2023-04-14T14:17:32.769Z,57.48
2023-04-14T14:19:59.456Z,59.52
2023-04-14T14:22:26.271Z,57.80
2023-04-14T14:25:10.961Z,57.39
2023-04-14T14:27:44.861Z,58.45
2023-04-14T14:30:11.820Z,58.88
2023-04-14T14:32:38.335Z,59.78
2023-04-14T14:35:05.123Z,59.73
2023-04-14T14:37:31.628Z,60.13
2023-04-14T14:39:59.180Z,60.86
2023-04-14T14:42:26.993Z,60.63
2023-04-14T14:44:53.527Z,60.76
2023-04-14T14:47:20.127Z,61.25
2023-04-14T14:49:59.075Z,61.50
2023-04-14T14:52:36.620Z,61.43
2023-04-14T14:55:04.210Z,60.54
2023-04-14T14:57:31.115Z,58.30
2023-04-14T14:59:57.917Z,58.89
2023-04-14T15:02:25.635Z,58.72
2023-04-14T15:04:52.678Z,58.13
2023-04-14T15:07:19.181Z,59.50
2023-04-14T15:09:46.795Z,60.76
2023-04-14T15:12:13.345Z,60.34
2023-04-14T15:14:39.850Z,61.59
2023-04-14T15:17:06.351Z,60.97
2023-04-14T15:19:32.978Z,60.97
2023-04-14T15:22:01.136Z,60.78
2023-04-14T15:24:27.649Z,59.83
2023-04-14T15:26:54.138Z,58.85
2023-04-14T15:29:20.733Z,60.05
2023-04-14T15:31:47.192Z,60.92
2023-04-14T15:34:13.662Z,60.62
2023-04-14T15:36:40.322Z,62.92
2023-04-14T15:39:07.115Z,62.32
2023-04-14T15:41:33.574Z,60.68
2023-04-14T15:44:00.251Z,62.74
2023-04-14T15:46:27.351Z,63.36
2023-04-14T15:48:53.824Z,62.27
2023-04-14T15:51:20.529Z,59.57
2023-04-14T15:53:47.025Z,58.44
2023-04-14T15:56:13.962Z,58.63
2023-04-14T15:58:40.614Z,58.40
2023-04-14T16:01:07.756Z,57.28
2023-04-14T16:03:34.541Z,57.30
2023-04-14T16:06:02.657Z,58.54
2023-04-14T16:08:29.310Z,59.90
2023-04-14T16:10:55.813Z,58.92
2023-04-14T16:13:22.285Z,59.26
2023-04-14T16:15:48.746Z,59.18
2023-04-14T16:18:15.257Z,58.60
2023-04-14T16:20:41.771Z,59.15
2023-04-14T16:23:08.314Z,59.70
2023-04-14T16:25:34.827Z,59.04
2023-04-14T16:28:01.302Z,59.79
2023-04-14T16:30:27.760Z,60.00
2023-04-14T16:32:54.308Z,58.84
2023-04-14T16:35:21.196Z,58.59
2023-04-14T16:37:47.810Z,59.59
2023-04-14T16:40:14.952Z,59.53
2023-04-14T16:42:41.672Z,58.67
2023-04-14T16:45:08.868Z,58.95
2023-04-14T16:47:35.809Z,58.70
2023-04-14T16:50:06.271Z,59.92
2023-04-14T16:52:32.842Z,59.93
2023-04-14T16:54:59.468Z,58.97
2023-04-14T16:57:26.520Z,59.24
2023-04-14T16:59:52.994Z,60.02
2023-04-14T17:02:19.655Z,60.95
2023-04-14T17:04:47.358Z,61.46
2023-04-14T17:07:16.720Z,61.07
2023-04-14T17:10:00.054Z,63.21
2023-04-14T17:12:44.305Z,62.51
2023-04-14T17:15:23.987Z,61.99
2023-04-14T17:20:45.091Z,63.04
2023-04-14T17:23:16.713Z,64.32
2023-04-14T17:25:48.432Z,63.48
2023-04-14T17:28:17.087Z,62.95
2023-04-14T17:30:48.376Z,64.09
2023-04-14T17:33:19.212Z,64.66
2023-04-14T17:35:59.631Z,64.19
2023-04-14T17:38:37.380Z,65.49
2023-04-14T17:41:07.798Z,65.50
2023-04-14T17:43:49.750Z,65.98
2023-04-14T17:46:27.515Z,66.14
2023-04-14T17:49:00.437Z,65.66
2023-04-14T17:51:37.894Z,65.77
2023-04-14T17:54:07.420Z,66.52
2023-04-14T17:56:42.437Z,65.32
2023-04-14T17:59:21.676Z,67.85
2023-04-14T18:01:50.410Z,67.65
2023-04-14T18:04:25.202Z,67.25
2023-04-14T18:06:55.371Z,68.16
2023-04-14T18:09:29.782Z,68.27
2023-04-14T18:11:57.973Z,70.28
2023-04-14T18:14:32.928Z,69.98
2023-04-14T18:17:05.410Z,71.85
2023-04-14T18:19:38.364Z,72.21
2023-04-14T18:22:06.010Z,74.00
2023-04-14T18:24:48.359Z,74.93
2023-04-14T18:30:14.551Z,78.48
2023-04-14T18:32:50.565Z,78.65
2023-04-14T18:35:19.890Z,79.03
2023-04-14T18:37:53.448Z,78.61
2023-04-14T18:40:22.185Z,79.07
2023-04-14T18:42:55.989Z,78.80
2023-04-14T18:45:26.469Z,78.58
2023-04-14T18:47:58.219Z,78.87
2023-04-14T18:50:33.829Z,79.69
2023-04-14T18:53:03.253Z,79.79
2023-04-14T18:55:44.625Z,79.08
2023-04-14T18:58:24.069Z,78.80
2023-04-14T19:00:53.569Z,78.10
2023-04-14T19:03:38.467Z,77.96
2023-04-14T19:06:08.509Z,78.70
2023-04-14T19:09:11.204Z,79.88
2023-04-14T19:11:38.639Z,79.26
2023-04-14T19:14:48.422Z,79.16
2023-04-14T19:17:17.736Z,79.37
2023-04-14T19:19:50.161Z,78.88
2023-04-14T19:22:24.952Z,80.69
2023-04-14T19:24:59.284Z,79.75
2023-04-14T19:27:33.596Z,79.31
2023-04-14T19:30:01.442Z,79.48
2023-04-14T19:32:49.696Z,80.18
2023-04-14T19:35:18.021Z,78.55
2023-04-14T19:37:54.416Z,79.20
2023-04-14T19:40:28.000Z,79.68
2023-04-14T19:43:02.551Z,78.76
2023-04-14T19:45:32.810Z,78.79
2023-04-14T19:48:09.891Z,79.44
2023-04-14T19:50:56.639Z,79.27
2023-04-14T19:54:20.614Z,78.90
2023-04-14T19:56:49.553Z,77.07
2023-04-14T19:59:19.108Z,78.25
2023-04-14T20:01:58.709Z,79.45
2023-04-14T20:04:32.686Z,78.04
2023-04-14T20:07:01.986Z,76.61
2023-04-14T20:10:01.754Z,76.92
2023-04-14T20:12:31.193Z,78.06
2023-04-14T20:14:59.865Z,77.41
2023-04-14T20:17:28.907Z,77.48
2023-04-14T20:20:20.470Z,79.68
2023-04-14T20:22:51.622Z,80.13
2023-04-14T20:25:24.134Z,80.82
2023-04-14T20:27:55.826Z,80.60
2023-04-14T20:30:27.651Z,79.99
2023-04-14T20:33:09.026Z,79.63
2023-04-14T20:35:39.834Z,80.35
2023-04-14T20:38:13.252Z,79.96
2023-04-14T20:41:00.189Z,80.51
2023-04-14T20:47:13.130Z,80.95
2023-04-14T20:49:45.448Z,80.85
2023-04-14T20:52:20.328Z,82.38
2023-04-14T20:54:51.113Z,82.19
2023-04-14T21:00:04.110Z,83.48
2023-04-14T21:02:39.037Z,82.86
2023-04-14T21:11:14.685Z,84.33
2023-04-14T21:15:30.956Z,82.71
2023-04-14T21:16:45.340Z,83.81
2023-04-14T21:19:23.032Z,83.32
2023-04-14T21:21:54.639Z,84.56
2023-04-14T21:28:42.700Z,85.83
2023-04-14T21:31:11.816Z,86.03
2023-04-14T21:33:58.670Z,85.55
2023-04-14T21:36:30.672Z,84.61
2023-04-14T21:39:15.412Z,84.98
2023-04-14T21:41:50.688Z,85.09
2023-04-14T21:47:25.740Z,84.90
2023-04-14T21:49:54.568Z,84.36
2023-04-14T21:52:29.419Z,85.27
2023-04-14T21:55:05.291Z,84.27
2023-04-14T21:57:42.619Z,84.47
2023-04-14T22:00:18.072Z,84.64
2023-04-14T22:02:46.477Z,84.68
2023-04-14T22:05:15.130Z,85.24
2023-04-14T22:07:45.855Z,85.90
2023-04-14T22:10:13.952Z,86.69
2023-04-14T22:12:43.502Z,86.20
2023-04-14T22:15:14.812Z,85.53
2023-04-14T22:17:45.442Z,88.17
2023-04-14T22:20:12.686Z,86.53
2023-04-14T22:22:42.082Z,86.59
2023-04-14T22:25:17.222Z,84.77
2023-04-14T22:27:45.448Z,84.01
2023-04-14T22:30:13.177Z,86.79
2023-04-14T22:32:44.219Z,85.43
2023-04-14T22:35:13.161Z,84.31
2023-04-14T22:37:41.605Z,87.09
2023-04-14T22:40:11.528Z,86.00
2023-04-14T22:42:38.577Z,85.49
2023-04-14T22:45:12.100Z,84.80
2023-04-14T22:47:41.451Z,86.65
2023-04-14T22:50:10.937Z,86.44
2023-04-14T22:52:41.920Z,86.26
2023-04-14T22:55:09.824Z,86.84
2023-04-14T22:57:39.721Z,88.01
2023-04-14T23:03:21.250Z,89.88
2023-04-14T23:05:56.672Z,87.99
2023-04-14T23:08:38.147Z,89.50
2023-04-14T23:11:11.613Z,89.26
2023-04-14T23:13:52.902Z,87.89
2023-04-14T23:16:30.557Z,89.29
2023-04-14T23:19:05.501Z,90.44
2023-04-14T23:21:39.499Z,89.35
2023-04-14T23:24:15.943Z,89.30
2023-04-14T23:26:50.531Z,90.39
2023-04-14T23:29:21.694Z,88.55
2023-04-14T23:31:57.177Z,88.35
2023-04-14T23:34:32.253Z,89.13
2023-04-14T23:37:02.717Z,88.34
2023-04-14T23:39:33.946Z,88.21
2023-04-14T23:42:03.391Z,89.80
2023-04-14T23:44:45.661Z,89.77
2023-04-14T23:47:18.889Z,89.76
2023-04-14T23:52:32.808Z,90.15
2023-04-14T23:55:17.319Z,89.65
